Terminal Aerodrome Forecast
Issued by NWS Louisville, KY

Home | Current Version | Previous Version | Text Only | Print | Product List | Glossary On
Versions: 1 2 3 4 5 6 7 8 9 10 11 12 13 14 15 16 17 18
000
FTUS43 KLMK 030500
TAFLEX
TAF
KLEX 030520Z 0306/0406 13004KT P6SM BKN015
     FM031100 18005KT 3SM BR BKN008
     FM031600 23007KT 5SM BR VCTS BKN015CB=

USA.gov is the U.S. government's official web portal to all federal, state and local government web resources and services.